Hlavní strana
METAR-TAF:

METAR-TAF

Letiště :

Letiště Kodaň

Kodaň, Dánsko

zeměpisná šířka: 55-37N, zeměpisná délka: 012-39E, výška: 5 m

Aktuální stav počasí

Zpráva byla vytvořena před 16 minutami, v 10:20 UTC
Severoseverozápadní vítr 10 kt, proměnlivý mezi západoseverozápadním a severním
Teplota 25°C
Vlhkost vzduchu 61%
Tlak 1013 hPa
Viditelnost 10 km a více
Žádná oblačnost pod 1500 m, nevyskytují se cumulonimby.

METAR: EKCH 181020Z 33010KT 300V010 CAVOK 25/17 Q1013 NOSIG

Čas: 12:36 (10:36 UTC)

Předpověď počasí

Zpráva byla vytvořena před 5 hodinami a 24 minutami, v 05:12 UTC
Předpověď platná od 18 v 06 UTC do 19 v 06 UTC
Severoseverozápadní vítr 8 kt
Viditelnost 10 km a více
Žádná oblačnost pod 1500 m, nevyskytují se cumulonimby.
Dočasný
od 18 v 06 UTC do 18 v 16 UTC
Polojasno ve výšce 4000 ft, Cumulonimbus.
dešťové přeháňky

TAF: EKCH 180512Z 1806/1906 33008KT CAVOK TEMPO 1806/1816 SHRA SCT040CB

Stav a předpovědi počasí z více než 4 000 letišť (zprávy METAR a TAF).

Červené a žluté tečky na mapě představují dostupné meteorologické stanice.

Když kurzor umístíte na tečku, zobrazí se název stanice.

Pak kliknutím zobrazíte stav a předpověď počasí.

Chcete-li změnit mapu, kliknutím na zelené tlačítko se znaménkem +mapu přiblížíte, kliknutím na zelené tlačítko se znaménkem – mapu oddálíte a kliknutím na zelené šipky přejdete na sousední mapy.


METAR-TAF: